Time;durP1;ratioP1;P1;durP2;ratioP2;P2;SDS_P1;SDS_P2;PMS_P1;PMS_P2;Temp;Humidity;BMP_temperature;BMP_pressure;BME280_temperature;BME280_humidity;BME280_pressure;Samples;Min_cycle;Max_cycle;Signal;HPM_P1;HPM_P2
2020/12/09 00:00:29;;;;;;;20.48;15.10;;;;;;;;;;5059594;28;20206;-88
2020/12/09 00:02:56;;;;;;;21.67;15.35;;;;;;;;;;5060627;28;20186;-89
2020/12/09 00:05:24;;;;;;;19.90;14.80;;;;;;;;;;5059599;28;20186;-88
2020/12/09 00:07:52;;;;;;;18.65;13.65;;;;;;;;;;5059692;28;20185;-88
2020/12/09 00:10:19;;;;;;;18.70;15.07;;;;;;;;;;5059710;28;20197;-87
2020/12/09 00:12:46;;;;;;;16.98;12.68;;;;;;;;;;5059810;28;20196;-88
2020/12/09 00:15:13;;;;;;;24.40;15.82;;;;;;;;;;5059510;28;20444;-88
2020/12/09 00:17:40;;;;;;;17.73;13.05;;;;;;;;;;5059144;28;20218;-88
2020/12/09 00:20:07;;;;;;;18.25;13.60;;;;;;;;;;5041797;28;20189;-85
2020/12/09 00:22:35;;;;;;;19.42;14.10;;;;;;;;;;5058482;28;20217;-85
2020/12/09 00:25:04;;;;;;;20.55;15.38;;;;;;;;;;5059293;28;20185;-85
2020/12/09 00:27:33;;;;;;;19.17;15.02;;;;;;;;;;5059284;28;20182;-88
2020/12/09 00:30:02;;;;;;;20.00;15.57;;;;;;;;;;5059950;28;20208;-88
2020/12/09 00:32:29;;;;;;;20.88;14.65;;;;;;;;;;5059220;28;20196;-87
2020/12/09 00:34:56;;;;;;;22.55;15.93;;;;;;;;;;5059364;28;20214;-88
2020/12/09 00:37:23;;;;;;;20.90;14.45;;;;;;;;;;5058679;28;20194;-88
2020/12/09 00:39:50;;;;;;;20.00;15.50;;;;;;;;;;5059090;28;20189;-88
2020/12/09 00:42:18;;;;;;;21.10;15.70;;;;;;;;;;5058920;28;20205;-88
2020/12/09 00:44:45;;;;;;;21.70;16.42;;;;;;;;;;5058641;28;20200;-88
2020/12/09 00:47:12;;;;;;;22.42;16.75;;;;;;;;;;5058765;28;20224;-88
2020/12/09 00:52:24;;;;;;;21.50;15.73;;;;;;;;;;5058921;28;20245;-88
2020/12/09 00:54:51;;;;;;;20.05;15.90;;;;;;;;;;5058861;28;20236;-88
2020/12/09 00:57:24;;;;;;;27.35;17.38;;;;;;;;;;5058703;28;20196;-88
2020/12/09 00:59:51;;;;;;;20.80;14.90;;;;;;;;;;5058388;28;20221;-87
2020/12/09 01:02:18;;;;;;;23.52;16.27;;;;;;;;;;5058540;28;20480;-88
2020/12/09 01:04:49;;;;;;;20.58;15.77;;;;;;;;;;5058387;28;20299;-88
2020/12/09 01:07:16;;;;;;;20.35;16.08;;;;;;;;;;5025713;28;20208;-88
2020/12/09 01:09:43;;;;;;;19.67;15.45;;;;;;;;;;5058285;28;20269;-87
2020/12/09 01:12:11;;;;;;;21.30;16.50;;;;;;;;;;5040708;28;20213;-88
2020/12/09 01:14:39;;;;;;;24.20;16.73;;;;;;;;;;5058317;28;20210;-88
2020/12/09 01:17:06;;;;;;;19.90;16.00;;;;;;;;;;5058350;28;20225;-88
2020/12/09 01:19:33;;;;;;;23.85;16.80;;;;;;;;;;5058303;28;20198;-88
2020/12/09 01:22:03;;;;;;;28.13;18.33;;;;;;;;;;5058458;28;20179;-88
2020/12/09 01:24:30;;;;;;;23.40;17.52;;;;;;;;;;5058145;28;20192;-88
2020/12/09 01:26:57;;;;;;;24.50;17.77;;;;;;;;;;5058357;28;20220;-88
2020/12/09 01:29:24;;;;;;;22.35;16.80;;;;;;;;;;5058194;28;20209;-88
2020/12/09 01:31:57;;;;;;;24.02;17.80;;;;;;;;;;5058341;28;20189;-88
2020/12/09 01:34:24;;;;;;;25.52;18.65;;;;;;;;;;5057923;28;20228;-88
2020/12/09 01:36:53;;;;;;;23.27;16.40;;;;;;;;;;5058349;28;20194;-88
2020/12/09 01:39:20;;;;;;;26.40;17.40;;;;;;;;;;5058272;28;20193;-88
2020/12/09 01:41:47;;;;;;;25.85;17.42;;;;;;;;;;5058003;28;20192;-88
2020/12/09 01:44:14;;;;;;;25.10;19.05;;;;;;;;;;5058238;28;20204;-86
2020/12/09 01:46:41;;;;;;;24.13;18.17;;;;;;;;;;5058501;28;20236;-89
2020/12/09 01:49:09;;;;;;;27.02;19.17;;;;;;;;;;5058095;28;20213;-87
2020/12/09 01:51:36;;;;;;;27.92;19.80;;;;;;;;;;5058146;28;20196;-88
2020/12/09 01:54:03;;;;;;;23.55;17.77;;;;;;;;;;5057918;28;20205;-88
2020/12/09 01:56:30;;;;;;;26.98;19.05;;;;;;;;;;5057903;28;20186;-88
2020/12/09 01:58:57;;;;;;;27.52;19.80;;;;;;;;;;5057726;28;20619;-88
2020/12/09 02:01:24;;;;;;;26.27;20.33;;;;;;;;;;5058705;28;20190;-89
2020/12/09 02:03:51;;;;;;;24.92;19.05;;;;;;;;;;5057972;28;20209;-89
2020/12/09 02:06:20;;;;;;;27.23;19.90;;;;;;;;;;5058141;28;20182;-89
2020/12/09 02:08:47;;;;;;;24.48;18.20;;;;;;;;;;5058046;28;20196;-88
2020/12/09 02:11:15;;;;;;;26.73;19.50;;;;;;;;;;5024058;28;20190;-88
2020/12/09 02:13:43;;;;;;;21.25;17.23;;;;;;;;;;5058260;28;20200;-88
2020/12/09 02:16:13;;;;;;;23.67;16.80;;;;;;;;;;5058007;28;20438;-89
2020/12/09 02:18:40;;;;;;;21.02;16.70;;;;;;;;;;5057475;28;20241;-88
2020/12/09 02:21:07;;;;;;;25.42;18.10;;;;;;;;;;5057621;28;20180;-88
2020/12/09 02:23:35;;;;;;;22.35;17.40;;;;;;;;;;5058062;28;20196;-88
2020/12/09 02:26:02;;;;;;;25.73;17.00;;;;;;;;;;5057829;28;20197;-89
2020/12/09 02:28:29;;;;;;;23.25;17.52;;;;;;;;;;5057516;28;20556;-87
2020/12/09 02:30:56;;;;;;;23.33;17.63;;;;;;;;;;5057581;28;20202;-89
2020/12/09 02:33:23;;;;;;;28.52;21.20;;;;;;;;;;5057613;28;20194;-89
2020/12/09 02:35:50;;;;;;;25.65;16.63;;;;;;;;;;5057508;28;20202;-89
2020/12/09 02:38:17;;;;;;;25.30;19.35;;;;;;;;;;5057633;28;20201;-86
2020/12/09 02:40:44;;;;;;;25.55;17.98;;;;;;;;;;5057415;28;20204;-86
2020/12/09 02:43:11;;;;;;;25.90;18.63;;;;;;;;;;5057782;28;20206;-86
2020/12/09 02:45:38;;;;;;;23.73;17.80;;;;;;;;;;5058795;28;20565;-89
2020/12/09 02:48:05;;;;;;;27.95;18.13;;;;;;;;;;5060935;28;20210;-88
2020/12/09 02:50:32;;;;;;;27.63;19.48;;;;;;;;;;5061181;28;20210;-89
2020/12/09 02:52:59;;;;;;;23.75;17.40;;;;;;;;;;5062045;28;20186;-89
2020/12/09 02:55:26;;;;;;;24.25;18.88;;;;;;;;;;5060957;28;20221;-88
2020/12/09 02:57:54;;;;;;;23.75;17.50;;;;;;;;;;5061092;28;20280;-89
2020/12/09 03:00:21;;;;;;;21.50;18.27;;;;;;;;;;5060719;28;20582;-89
2020/12/09 03:02:47;;;;;;;23.80;17.45;;;;;;;;;;5061000;28;20197;-89
2020/12/09 03:05:14;;;;;;;26.23;18.90;;;;;;;;;;5060671;28;20182;-88
2020/12/09 03:07:43;;;;;;;33.15;17.88;;;;;;;;;;5060673;28;20202;-86
2020/12/09 03:10:10;;;;;;;21.95;16.90;;;;;;;;;;5061308;28;20487;-88
2020/12/09 03:12:37;;;;;;;21.15;16.63;;;;;;;;;;5060728;28;20178;-87
2020/12/09 03:15:05;;;;;;;25.42;18.40;;;;;;;;;;5060221;28;20213;-88
2020/12/09 03:17:32;;;;;;;23.42;17.88;;;;;;;;;;5060486;28;20611;-88
2020/12/09 03:19:59;;;;;;;23.33;17.25;;;;;;;;;;5060214;28;20198;-88
2020/12/09 03:22:26;;;;;;;23.25;16.63;;;;;;;;;;5059917;28;20198;-87
2020/12/09 03:24:52;;;;;;;24.35;16.65;;;;;;;;;;5060170;28;20182;-87
2020/12/09 03:27:19;;;;;;;23.80;17.13;;;;;;;;;;5060037;28;20193;-87
2020/12/09 03:29:47;;;;;;;19.45;15.52;;;;;;;;;;5060367;28;20186;-88
2020/12/09 03:32:15;;;;;;;21.30;16.50;;;;;;;;;;5060361;28;20182;-88
2020/12/09 03:34:42;;;;;;;20.95;15.70;;;;;;;;;;5059952;28;20213;-87
2020/12/09 03:37:09;;;;;;;22.73;17.17;;;;;;;;;;5060578;28;20190;-88
2020/12/09 03:39:36;;;;;;;21.20;16.23;;;;;;;;;;5059917;28;20182;-87
2020/12/09 03:42:03;;;;;;;22.13;17.35;;;;;;;;;;5060197;28;20185;-87
2020/12/09 03:44:29;;;;;;;20.25;16.25;;;;;;;;;;5060569;28;20462;-87
2020/12/09 03:46:56;;;;;;;22.70;16.67;;;;;;;;;;5059554;28;20566;-87
2020/12/09 03:49:24;;;;;;;21.80;17.52;;;;;;;;;;5060469;28;20194;-87
2020/12/09 03:51:51;;;;;;;26.25;18.13;;;;;;;;;;5059743;28;20189;-87
2020/12/09 03:54:18;;;;;;;21.88;15.73;;;;;;;;;;5059440;28;20193;-86
2020/12/09 03:56:45;;;;;;;20.20;15.98;;;;;;;;;;5059669;28;20182;-87
2020/12/09 03:59:12;;;;;;;23.27;15.60;;;;;;;;;;5060090;28;20502;-87
2020/12/09 04:01:39;;;;;;;25.05;17.88;;;;;;;;;;5059808;28;20190;-87
2020/12/09 04:04:06;;;;;;;21.48;17.02;;;;;;;;;;5059759;28;20443;-87
2020/12/09 04:06:34;;;;;;;21.30;16.63;;;;;;;;;;5059808;28;20182;-88
2020/12/09 04:09:01;;;;;;;20.23;15.77;;;;;;;;;;5059509;28;20182;-89
2020/12/09 04:11:28;;;;;;;20.40;15.55;;;;;;;;;;5059481;28;20178;-89
2020/12/09 04:13:54;;;;;;;23.30;16.63;;;;;;;;;;5059665;28;20470;-88
2020/12/09 04:16:21;;;;;;;21.05;15.90;;;;;;;;;;5059559;28;20206;-89
2020/12/09 04:18:48;;;;;;;19.85;15.23;;;;;;;;;;5059143;28;20214;-89
2020/12/09 04:21:15;;;;;;;22.75;16.02;;;;;;;;;;5059546;28;20190;-89
2020/12/09 04:23:43;;;;;;;28.42;15.82;;;;;;;;;;5059248;28;20273;-87
2020/12/09 04:26:10;;;;;;;23.02;17.05;;;;;;;;;;5059305;28;20182;-88
2020/12/09 04:28:37;;;;;;;22.38;17.27;;;;;;;;;;5058636;28;20205;-88
2020/12/09 04:31:04;;;;;;;21.17;15.93;;;;;;;;;;5058973;28;20186;-87
2020/12/09 04:33:31;;;;;;;17.67;15.75;;;;;;;;;;5058956;28;20216;-88
2020/12/09 04:35:59;;;;;;;20.23;16.88;;;;;;;;;;5059157;28;20216;-87
2020/12/09 04:38:26;;;;;;;22.48;16.90;;;;;;;;;;5058622;28;20479;-88
2020/12/09 04:40:53;;;;;;;22.15;17.65;;;;;;;;;;5059085;28;20536;-87
2020/12/09 04:43:20;;;;;;;25.85;17.60;;;;;;;;;;5058979;28;20194;-87
2020/12/09 04:45:47;;;;;;;21.42;15.40;;;;;;;;;;5058524;28;20484;-88
2020/12/09 04:48:16;;;;;;;24.23;17.80;;;;;;;;;;5058144;28;20218;-88
2020/12/09 04:51:24;;;;;;;22.60;17.05;;;;;;;;;;5059216;28;20193;-87
2020/12/09 04:53:58;;;;;;;23.30;17.27;;;;;;;;;;5017596;28;20203;-87
2020/12/09 04:56:31;;;;;;;25.90;18.92;;;;;;;;;;5017379;28;20498;-87
2020/12/09 04:58:58;;;;;;;26.77;17.80;;;;;;;;;;5017344;28;20230;-88
2020/12/09 05:01:34;;;;;;;25.55;19.00;;;;;;;;;;5017490;28;20191;-88
2020/12/09 05:04:05;;;;;;;28.35;20.48;;;;;;;;;;5017573;28;20205;-88
2020/12/09 05:06:32;;;;;;;25.30;17.92;;;;;;;;;;5017431;28;20194;-87
2020/12/09 05:09:02;;;;;;;28.00;19.52;;;;;;;;;;5016965;28;20197;-88
2020/12/09 05:11:29;;;;;;;26.50;18.95;;;;;;;;;;5017210;28;20201;-87
2020/12/09 05:13:58;;;;;;;26.88;20.55;;;;;;;;;;5017258;28;20555;-87
2020/12/09 05:16:26;;;;;;;23.60;18.88;;;;;;;;;;5017154;28;20214;-88
2020/12/09 05:18:57;;;;;;;29.92;19.13;;;;;;;;;;5016963;28;20221;-88
2020/12/09 05:21:25;;;;;;;27.10;20.10;;;;;;;;;;5017390;28;20184;-88
2020/12/09 05:23:55;;;;;;;27.38;20.30;;;;;;;;;;5017325;28;20576;-88
2020/12/09 05:26:27;;;;;;;26.83;20.17;;;;;;;;;;5017144;28;20187;-88
2020/12/09 05:29:09;;;;;;;24.15;18.55;;;;;;;;;;5018046;28;20195;-88
2020/12/09 05:31:38;;;;;;;24.20;19.02;;;;;;;;;;5052507;28;20194;-87
2020/12/09 05:34:25;;;;;;;26.25;19.13;;;;;;;;;;5059113;28;20374;-87
2020/12/09 05:36:54;;;;;;;26.92;20.77;;;;;;;;;;5059044;28;20448;-87
2020/12/09 05:39:21;;;;;;;27.30;19.35;;;;;;;;;;5058147;28;20448;-87
2020/12/09 05:41:49;;;;;;;25.55;18.20;;;;;;;;;;5058217;28;20205;-87
2020/12/09 05:44:16;;;;;;;27.92;19.20;;;;;;;;;;5058273;28;20196;-87
2020/12/09 05:46:59;;;;;;;28.88;19.27;;;;;;;;;;5057769;28;20198;-91
2020/12/09 05:49:31;;;;;;;30.10;21.30;;;;;;;;;;5058462;28;20211;-93
2020/12/09 05:52:12;;;;;;;26.40;20.80;;;;;;;;;;5058268;28;20204;-92
2020/12/09 05:54:41;;;;;;;27.75;20.58;;;;;;;;;;5058983;28;20193;-93
2020/12/09 05:57:11;;;;;;;28.38;18.73;;;;;;;;;;5058709;28;20240;-94
2020/12/09 05:59:41;;;;;;;28.48;19.75;;;;;;;;;;5057935;28;20233;-90
2020/12/09 06:02:14;;;;;;;31.60;22.13;;;;;;;;;;5057963;28;20467;-84
2020/12/09 06:04:48;;;;;;;30.20;20.67;;;;;;;;;;5057663;28;20528;-90
2020/12/09 06:07:16;;;;;;;26.70;19.30;;;;;;;;;;5057064;28;20285;-90
2020/12/09 06:10:05;;;;;;;26.92;19.27;;;;;;;;;;5058107;28;20201;-92
2020/12/09 06:12:53;;;;;;;27.73;20.05;;;;;;;;;;5058563;28;20197;-93
2020/12/09 06:15:23;;;;;;;30.58;19.75;;;;;;;;;;5058317;28;20198;-91
2020/12/09 06:18:06;;;;;;;27.27;20.30;;;;;;;;;;5058651;28;20260;-92
2020/12/09 06:20:34;;;;;;;26.30;20.10;;;;;;;;;;5059139;28;20186;-91
2020/12/09 06:23:03;;;;;;;27.00;20.13;;;;;;;;;;5061909;28;20181;-92
2020/12/09 06:25:30;;;;;;;29.38;20.40;;;;;;;;;;5062293;28;20213;-91
2020/12/09 06:27:58;;;;;;;28.45;20.63;;;;;;;;;;5061848;28;20208;-92
2020/12/09 06:30:30;;;;;;;27.92;20.88;;;;;;;;;;5062181;28;20200;-92
2020/12/09 06:33:00;;;;;;;27.95;20.10;;;;;;;;;;5062183;28;20194;-94
2020/12/09 06:35:26;;;;;;;30.40;20.83;;;;;;;;;;5062294;28;20226;-90
2020/12/09 06:38:16;;;;;;;31.58;20.95;;;;;;;;;;5061519;28;20185;-91
2020/12/09 06:41:13;;;;;;;33.15;22.88;;;;;;;;;;5061547;28;20208;-92
2020/12/09 06:44:01;;;;;;;28.38;19.67;;;;;;;;;;5000849;28;20263;-92
2020/12/09 06:46:47;;;;;;;30.50;21.83;;;;;;;;;;5001211;28;20210;-91
2020/12/09 06:49:47;;;;;;;27.38;19.52;;;;;;;;;;5000850;28;20185;-92
2020/12/09 06:52:43;;;;;;;27.75;20.52;;;;;;;;;;4943482;29;20220;-92
2020/12/09 06:55:20;;;;;;;26.17;18.13;;;;;;;;;;4942060;29;20212;-92
2020/12/09 06:57:47;;;;;;;30.42;21.38;;;;;;;;;;4942638;29;20241;-92
2020/12/09 07:00:24;;;;;;;30.60;22.23;;;;;;;;;;4942297;29;20548;-92
2020/12/09 07:02:54;;;;;;;30.17;21.13;;;;;;;;;;4942369;29;20269;-92
2020/12/09 07:05:31;;;;;;;29.55;21.27;;;;;;;;;;4943114;29;20210;-92
2020/12/09 07:08:04;;;;;;;31.60;20.60;;;;;;;;;;4942258;29;20181;-92
2020/12/09 07:10:33;;;;;;;29.55;21.20;;;;;;;;;;4943036;29;20216;-92
2020/12/09 07:13:12;;;;;;;29.25;21.50;;;;;;;;;;4942271;29;20556;-92
2020/12/09 07:15:43;;;;;;;30.10;21.80;;;;;;;;;;4942229;29;20183;-93
2020/12/09 07:18:11;;;;;;;31.50;22.58;;;;;;;;;;4979344;28;20497;-92
2020/12/09 07:20:38;;;;;;;28.40;20.42;;;;;;;;;;5000120;28;20186;-92
2020/12/09 07:23:06;;;;;;;31.42;21.73;;;;;;;;;;5029611;28;20331;-93
2020/12/09 07:25:35;;;;;;;28.63;20.30;;;;;;;;;;5060988;28;20201;-93
2020/12/09 07:28:03;;;;;;;30.80;21.20;;;;;;;;;;5060865;28;20193;-93
2020/12/09 07:30:30;;;;;;;29.77;20.77;;;;;;;;;;5060842;28;20524;-92
2020/12/09 07:32:57;;;;;;;31.83;21.67;;;;;;;;;;5060673;28;20194;-92
2020/12/09 07:35:26;;;;;;;28.20;19.42;;;;;;;;;;5060218;28;20570;-92
2020/12/09 07:37:55;;;;;;;33.22;21.95;;;;;;;;;;5060924;28;20221;-92
2020/12/09 07:40:26;;;;;;;30.42;20.83;;;;;;;;;;5062446;28;20201;-94
2020/12/09 07:43:03;;;;;;;29.42;21.30;;;;;;;;;;5060522;28;20198;-92
2020/12/09 07:45:30;;;;;;;30.25;19.35;;;;;;;;;;5060142;28;20196;-90
2020/12/09 07:48:03;;;;;;;29.55;20.98;;;;;;;;;;5059749;28;20214;-90
2020/12/09 07:50:31;;;;;;;28.80;19.58;;;;;;;;;;5060567;28;20197;-90
2020/12/09 07:52:59;;;;;;;29.45;21.38;;;;;;;;;;5060303;28;20552;-89
2020/12/09 07:55:27;;;;;;;27.50;20.92;;;;;;;;;;5059779;28;20575;-90
2020/12/09 07:58:04;;;;;;;31.10;22.35;;;;;;;;;;5060313;28;20221;-90
2020/12/09 08:00:36;;;;;;;30.27;20.45;;;;;;;;;;5060014;28;20190;-90
2020/12/09 08:03:03;;;;;;;27.83;19.58;;;;;;;;;;5060648;28;20202;-90
2020/12/09 08:05:36;;;;;;;28.02;19.38;;;;;;;;;;5059838;28;20193;-90
2020/12/09 08:08:10;;;;;;;25.40;18.63;;;;;;;;;;5059555;28;20185;-90
2020/12/09 08:10:37;;;;;;;27.55;18.90;;;;;;;;;;5059871;28;20186;-90
2020/12/09 08:13:10;;;;;;;24.13;18.02;;;;;;;;;;5059653;28;20198;-91
2020/12/09 08:15:40;;;;;;;25.73;17.45;;;;;;;;;;5060506;28;20190;-91
2020/12/09 08:18:08;;;;;;;25.75;18.08;;;;;;;;;;5059436;28;20567;-90
2020/12/09 08:20:49;;;;;;;24.25;17.70;;;;;;;;;;5059510;28;20179;-90
2020/12/09 08:23:16;;;;;;;24.63;19.02;;;;;;;;;;5060243;28;20202;-91
2020/12/09 08:25:49;;;;;;;30.98;19.95;;;;;;;;;;5059612;28;20200;-91
2020/12/09 08:28:20;;;;;;;24.65;18.17;;;;;;;;;;5059332;28;20233;-90
2020/12/09 08:30:47;;;;;;;24.23;17.38;;;;;;;;;;5059589;28;20182;-90
2020/12/09 08:33:26;;;;;;;25.98;19.05;;;;;;;;;;5059929;28;20209;-91
2020/12/09 08:35:59;;;;;;;30.40;21.27;;;;;;;;;;5060174;28;20252;-90
2020/12/09 08:38:33;;;;;;;27.27;18.98;;;;;;;;;;5058837;28;20242;-89
2020/12/09 08:41:03;;;;;;;26.83;19.05;;;;;;;;;;5059285;28;20206;-90
2020/12/09 08:43:32;;;;;;;26.85;19.20;;;;;;;;;;5058333;28;20200;-89
2020/12/09 08:46:00;;;;;;;29.30;18.75;;;;;;;;;;5059617;28;20208;-91
2020/12/09 08:48:27;;;;;;;27.90;20.23;;;;;;;;;;5058571;28;20231;-90
2020/12/09 08:50:54;;;;;;;26.45;19.10;;;;;;;;;;5059743;28;20186;-90
2020/12/09 08:53:22;;;;;;;31.63;21.70;;;;;;;;;;5059368;28;20197;-90
2020/12/09 08:55:50;;;;;;;27.85;18.95;;;;;;;;;;5059022;28;20186;-90
2020/12/09 08:58:18;;;;;;;26.17;20.70;;;;;;;;;;5058515;28;20640;-91
2020/12/09 09:00:46;;;;;;;29.73;19.63;;;;;;;;;;5058720;28;20198;-91
2020/12/09 09:03:16;;;;;;;29.48;19.13;;;;;;;;;;5058687;28;20209;-91
2020/12/09 09:05:45;;;;;;;27.85;19.33;;;;;;;;;;5059522;28;20202;-90
2020/12/09 09:08:14;;;;;;;24.52;18.20;;;;;;;;;;5059440;28;20237;-91
2020/12/09 09:10:43;;;;;;;28.25;18.77;;;;;;;;;;5058649;28;20186;-91
2020/12/09 09:13:10;;;;;;;30.73;20.27;;;;;;;;;;5058693;28;20186;-91
2020/12/09 09:15:38;;;;;;;25.55;19.27;;;;;;;;;;5058629;28;20201;-90
2020/12/09 09:18:06;;;;;;;29.88;20.17;;;;;;;;;;5058284;28;20594;-90
2020/12/09 09:20:34;;;;;;;28.48;20.42;;;;;;;;;;5058537;28;20194;-91
2020/12/09 09:23:03;;;;;;;27.83;19.55;;;;;;;;;;5058577;28;20249;-91
2020/12/09 09:25:31;;;;;;;24.20;17.63;;;;;;;;;;5058815;28;20180;-91
2020/12/09 09:27:59;;;;;;;26.70;19.70;;;;;;;;;;5058553;28;20186;-90
2020/12/09 09:30:26;;;;;;;27.10;17.15;;;;;;;;;;5058785;28;20208;-91
2020/12/09 09:32:53;;;;;;;29.83;20.23;;;;;;;;;;5058685;28;20197;-91
2020/12/09 09:35:20;;;;;;;31.58;21.10;;;;;;;;;;5059249;28;20206;-93
2020/12/09 09:37:48;;;;;;;26.13;19.95;;;;;;;;;;5058374;28;20206;-91
2020/12/09 09:40:15;;;;;;;27.17;20.58;;;;;;;;;;5058900;28;20197;-89
2020/12/09 09:42:43;;;;;;;27.17;19.27;;;;;;;;;;5058585;28;20198;-89
2020/12/09 09:45:11;;;;;;;26.85;20.02;;;;;;;;;;5058783;28;20211;-90
2020/12/09 09:47:39;;;;;;;28.10;20.15;;;;;;;;;;5057861;28;20668;-91
2020/12/09 09:50:07;;;;;;;28.75;22.13;;;;;;;;;;5058490;28;20207;-91
2020/12/09 09:52:34;;;;;;;28.40;20.63;;;;;;;;;;5058518;28;20457;-90
2020/12/09 09:55:02;;;;;;;32.20;23.08;;;;;;;;;;5060529;28;20194;-89
2020/12/09 09:57:29;;;;;;;35.42;21.75;;;;;;;;;;5061886;28;20206;-88
2020/12/09 09:59:57;;;;;;;34.08;24.35;;;;;;;;;;5061936;28;20229;-89
2020/12/09 10:02:24;;;;;;;28.30;21.50;;;;;;;;;;5062267;28;20182;-89
2020/12/09 10:04:51;;;;;;;36.92;25.15;;;;;;;;;;5062441;28;20198;-89
2020/12/09 10:07:18;;;;;;;36.47;24.65;;;;;;;;;;5062700;28;20182;-89
2020/12/09 10:09:45;;;;;;;41.00;24.55;;;;;;;;;;5062014;28;20197;-89
2020/12/09 10:12:12;;;;;;;40.00;25.30;;;;;;;;;;5062012;28;20448;-89
2020/12/09 10:14:39;;;;;;;42.80;26.02;;;;;;;;;;5061905;28;20211;-89
2020/12/09 10:17:06;;;;;;;39.42;26.75;;;;;;;;;;5061267;28;20224;-91
2020/12/09 10:19:34;;;;;;;41.00;25.95;;;;;;;;;;5061883;28;20217;-91
2020/12/09 10:22:02;;;;;;;37.63;24.70;;;;;;;;;;5061872;28;20186;-90
2020/12/09 10:24:29;;;;;;;39.03;25.13;;;;;;;;;;5061852;28;20524;-91
2020/12/09 10:26:56;;;;;;;41.83;25.83;;;;;;;;;;5061577;28;20284;-90
2020/12/09 10:29:23;;;;;;;38.25;24.23;;;;;;;;;;5061687;28;20281;-91
2020/12/09 10:31:50;;;;;;;44.30;27.30;;;;;;;;;;5061462;28;20192;-90
2020/12/09 10:34:20;;;;;;;40.53;25.35;;;;;;;;;;5062229;28;20205;-90
2020/12/09 10:36:50;;;;;;;40.97;25.45;;;;;;;;;;5061367;28;20235;-90
2020/12/09 10:39:19;;;;;;;38.70;23.05;;;;;;;;;;5062355;28;20182;-90
2020/12/09 10:41:46;;;;;;;37.65;24.60;;;;;;;;;;5061696;28;20186;-90
2020/12/09 10:44:13;;;;;;;40.28;26.20;;;;;;;;;;5061507;28;20182;-90
2020/12/09 10:46:41;;;;;;;38.28;23.85;;;;;;;;;;5061337;28;20201;-90
2020/12/09 10:49:11;;;;;;;37.83;24.25;;;;;;;;;;5061392;28;20225;-90
2020/12/09 10:51:44;;;;;;;31.23;20.33;;;;;;;;;;5061095;28;20555;-90
2020/12/09 10:54:11;;;;;;;34.25;22.05;;;;;;;;;;5061302;28;20426;-90
2020/12/09 10:56:38;;;;;;;30.92;21.63;;;;;;;;;;5062172;28;20221;-91
2020/12/09 10:59:05;;;;;;;30.15;20.77;;;;;;;;;;5061628;28;20221;-90
2020/12/09 11:01:33;;;;;;;28.23;20.80;;;;;;;;;;5061193;28;20182;-89
2020/12/09 11:04:01;;;;;;;31.70;21.13;;;;;;;;;;5061056;28;20210;-91
2020/12/09 11:06:30;;;;;;;28.65;21.25;;;;;;;;;;5060480;28;20278;-91
2020/12/09 11:08:58;;;;;;;30.63;19.65;;;;;;;;;;5062108;28;20216;-90
2020/12/09 11:11:26;;;;;;;29.92;19.30;;;;;;;;;;5061156;28;20198;-90
2020/12/09 11:13:53;;;;;;;31.00;19.90;;;;;;;;;;5061080;28;20211;-90
2020/12/09 11:16:22;;;;;;;32.63;22.25;;;;;;;;;;5060651;28;20269;-90
2020/12/09 11:18:50;;;;;;;29.30;21.85;;;;;;;;;;5060375;28;20225;-89
2020/12/09 11:21:18;;;;;;;26.95;20.80;;;;;;;;;;5060898;28;20190;-90
2020/12/09 11:23:46;;;;;;;29.73;20.23;;;;;;;;;;5060751;28;20196;-91
2020/12/09 11:26:14;;;;;;;31.50;22.55;;;;;;;;;;5060408;28;20178;-90
2020/12/09 11:28:41;;;;;;;31.63;21.55;;;;;;;;;;5060561;28;20181;-90
2020/12/09 11:31:08;;;;;;;29.92;20.45;;;;;;;;;;5061608;28;20212;-90
2020/12/09 11:33:35;;;;;;;32.05;22.40;;;;;;;;;;5061390;28;20191;-90
2020/12/09 11:36:03;;;;;;;34.47;21.83;;;;;;;;;;5060622;28;20235;-89
2020/12/09 11:38:30;;;;;;;32.20;21.98;;;;;;;;;;5060340;28;20249;-89
2020/12/09 11:40:57;;;;;;;29.45;20.52;;;;;;;;;;5060798;28;20202;-90
2020/12/09 11:43:27;;;;;;;28.15;18.20;;;;;;;;;;5027073;28;20205;-90
2020/12/09 11:45:57;;;;;;;28.13;20.38;;;;;;;;;;5060369;28;20190;-89
2020/12/09 11:48:24;;;;;;;27.33;18.73;;;;;;;;;;5060179;28;20214;-89
2020/12/09 11:50:51;;;;;;;28.58;20.67;;;;;;;;;;5059989;28;20189;-90
2020/12/09 11:53:18;;;;;;;29.38;20.52;;;;;;;;;;5060290;28;20178;-90
2020/12/09 11:55:45;;;;;;;31.23;22.17;;;;;;;;;;5060114;28;20182;-90
2020/12/09 11:58:13;;;;;;;30.20;19.00;;;;;;;;;;5060082;28;20525;-89
2020/12/09 12:00:40;;;;;;;25.95;17.77;;;;;;;;;;5060202;28;20216;-89
2020/12/09 12:03:07;;;;;;;28.10;18.38;;;;;;;;;;5060774;28;20196;-90
2020/12/09 12:05:36;;;;;;;24.20;16.83;;;;;;;;;;5059876;28;20459;-90
2020/12/09 12:08:04;;;;;;;27.02;17.98;;;;;;;;;;5060600;28;20556;-90
2020/12/09 12:10:32;;;;;;;29.10;18.73;;;;;;;;;;5059842;28;20185;-90
2020/12/09 12:12:59;;;;;;;25.42;19.35;;;;;;;;;;5059905;28;20186;-89
2020/12/09 12:15:26;;;;;;;27.95;20.23;;;;;;;;;;5059890;28;20526;-89
2020/12/09 12:17:54;;;;;;;31.52;21.45;;;;;;;;;;5060263;28;20226;-89
2020/12/09 12:20:21;;;;;;;28.65;19.45;;;;;;;;;;5059711;28;20208;-90
2020/12/09 12:22:48;;;;;;;26.33;20.05;;;;;;;;;;5059503;28;20197;-90
2020/12/09 12:25:15;;;;;;;29.50;20.58;;;;;;;;;;5060352;28;20208;-89
2020/12/09 12:27:44;;;;;;;31.25;20.40;;;;;;;;;;5059312;28;20213;-89
2020/12/09 12:30:11;;;;;;;24.10;18.67;;;;;;;;;;5060123;28;20202;-89
2020/12/09 12:32:38;;;;;;;24.05;16.70;;;;;;;;;;5059469;28;20182;-90
2020/12/09 12:35:06;;;;;;;29.40;20.50;;;;;;;;;;5059305;28;20186;-89
2020/12/09 12:37:34;;;;;;;27.00;19.42;;;;;;;;;;5059762;28;20532;-90
2020/12/09 12:40:01;;;;;;;24.65;18.08;;;;;;;;;;5058904;28;20614;-90
2020/12/09 12:42:28;;;;;;;31.83;20.92;;;;;;;;;;5059221;28;20190;-91
2020/12/09 12:44:55;;;;;;;33.85;20.83;;;;;;;;;;5059562;28;20212;-89
2020/12/09 12:47:22;;;;;;;24.65;19.77;;;;;;;;;;5059284;28;20492;-89
2020/12/09 12:49:49;;;;;;;24.92;17.70;;;;;;;;;;5059571;28;20194;-89
2020/12/09 12:52:17;;;;;;;21.42;16.20;;;;;;;;;;5059569;28;20190;-90
2020/12/09 12:54:44;;;;;;;20.73;15.40;;;;;;;;;;5059371;28;20192;-90
2020/12/09 12:57:11;;;;;;;22.75;15.70;;;;;;;;;;5059506;28;20209;-90
2020/12/09 12:59:38;;;;;;;21.90;17.00;;;;;;;;;;5058577;28;20229;-90
2020/12/09 13:02:05;;;;;;;20.10;16.63;;;;;;;;;;5058886;28;20186;-90
2020/12/09 13:04:32;;;;;;;23.63;16.63;;;;;;;;;;5058515;28;20582;-90
2020/12/09 13:06:59;;;;;;;24.52;17.73;;;;;;;;;;5058630;28;20204;-90
2020/12/09 13:09:27;;;;;;;23.13;17.10;;;;;;;;;;5059032;28;20193;-90
2020/12/09 13:11:54;;;;;;;24.95;18.27;;;;;;;;;;5024677;28;20559;-90
2020/12/09 13:14:21;;;;;;;22.90;18.45;;;;;;;;;;5058440;28;20186;-90
2020/12/09 13:16:50;;;;;;;24.05;17.13;;;;;;;;;;5058323;28;20179;-89
2020/12/09 13:19:17;;;;;;;21.58;15.15;;;;;;;;;;5058848;28;20205;-89
2020/12/09 13:21:45;;;;;;;19.15;14.43;;;;;;;;;;5058668;28;20197;-89
2020/12/09 13:24:12;;;;;;;18.13;14.10;;;;;;;;;;5059025;28;20204;-89
2020/12/09 13:26:42;;;;;;;17.65;14.27;;;;;;;;;;5058491;28;20581;-89
2020/12/09 13:29:09;;;;;;;24.08;16.15;;;;;;;;;;5058073;28;20201;-90
2020/12/09 13:31:38;;;;;;;22.63;16.63;;;;;;;;;;5058482;28;20186;-89
2020/12/09 13:34:07;;;;;;;21.90;17.17;;;;;;;;;;5058483;28;20602;-89
2020/12/09 13:36:34;;;;;;;25.77;17.35;;;;;;;;;;5058186;28;20178;-90
2020/12/09 13:39:02;;;;;;;23.88;17.63;;;;;;;;;;5058027;28;20516;-89
2020/12/09 13:41:29;;;;;;;27.13;17.95;;;;;;;;;;5058232;28;20201;-89
2020/12/09 13:43:57;;;;;;;24.88;17.30;;;;;;;;;;5058352;28;20190;-89
2020/12/09 13:46:24;;;;;;;24.70;17.45;;;;;;;;;;5058373;28;20455;-89
2020/12/09 13:48:51;;;;;;;20.45;15.55;;;;;;;;;;5058085;28;20241;-89
2020/12/09 13:51:18;;;;;;;26.58;18.27;;;;;;;;;;5058295;28;20180;-91
2020/12/09 13:53:45;;;;;;;24.05;18.23;;;;;;;;;;5058239;28;20189;-89
2020/12/09 13:56:12;;;;;;;27.02;19.42;;;;;;;;;;5058258;28;20182;-89
2020/12/09 13:58:39;;;;;;;24.95;17.90;;;;;;;;;;5057885;28;20243;-89
2020/12/09 14:01:06;;;;;;;26.23;19.13;;;;;;;;;;5058881;28;20198;-89
2020/12/09 14:03:33;;;;;;;25.80;18.63;;;;;;;;;;5058206;28;20190;-89
2020/12/09 14:06:00;;;;;;;24.55;18.15;;;;;;;;;;5058374;28;20194;-89
2020/12/09 14:08:27;;;;;;;25.17;18.70;;;;;;;;;;5058257;28;20197;-89
2020/12/09 14:10:54;;;;;;;25.65;17.10;;;;;;;;;;5058033;28;20211;-89
2020/12/09 14:13:21;;;;;;;26.13;18.52;;;;;;;;;;5058307;28;20471;-89
2020/12/09 14:15:52;;;;;;;23.20;18.27;;;;;;;;;;5058094;28;20186;-89
2020/12/09 14:18:21;;;;;;;27.73;20.00;;;;;;;;;;5058120;28;20229;-89
2020/12/09 14:20:55;;;;;;;21.65;17.92;;;;;;;;;;5058127;28;20306;-89
2020/12/09 14:23:22;;;;;;;22.38;16.20;;;;;;;;;;5058029;28;20174;-89
2020/12/09 14:25:49;;;;;;;20.85;16.60;;;;;;;;;;5057963;28;20540;-89
2020/12/09 14:28:16;;;;;;;22.23;17.00;;;;;;;;;;5058731;28;20424;-89